Time;durP1;ratioP1;P1;durP2;ratioP2;P2;SDS_P1;SDS_P2;PMS_P1;PMS_P2;Temp;Humidity;BMP_temperature;BMP_pressure;BME280_temperature;BME280_humidity;BME280_pressure;Samples;Min_cycle;Max_cycle;Signal;HPM_P1;HPM_P2
2021/12/02 00:01:04;;;;;;;3.03;0.70;;;4.60;99.90;;;;;;5046546;28;20293;-61
2021/12/02 00:03:34;;;;;;;0.60;0.60;;;4.60;99.90;;;;;;5047279;28;20225;-62
2021/12/02 00:06:00;;;;;;;2.37;0.80;;;4.50;99.90;;;;;;5046949;28;20202;-62
2021/12/02 00:08:30;;;;;;;0.83;0.40;;;4.40;99.90;;;;;;5046733;28;20221;-61
2021/12/02 00:10:57;;;;;;;0.77;0.53;;;4.40;99.90;;;;;;5047244;28;20209;-62
2021/12/02 00:13:26;;;;;;;0.40;0.40;;;4.50;99.90;;;;;;5046389;28;20198;-62
2021/12/02 00:15:56;;;;;;;0.50;0.50;;;4.40;99.90;;;;;;5046039;28;20554;-62
2021/12/02 00:21:02;;;;;;;0.73;0.73;;;4.40;99.90;;;;;;5046571;28;20317;-62
2021/12/02 00:21:21;;;;;;;0.60;0.60;;;4.40;99.90;;;;;;5046889;28;20191;-62
2021/12/02 00:23:53;;;;;;;0.70;0.70;;;4.40;99.90;;;;;;5046106;28;20203;-62
2021/12/02 00:26:22;;;;;;;0.40;0.40;;;4.30;99.90;;;;;;5046536;28;20195;-62
2021/12/02 00:28:53;;;;;;;0.70;0.70;;;4.30;99.90;;;;;;5045555;28;20230;-62
2021/12/02 00:31:21;;;;;;;0.43;0.43;;;4.30;99.90;;;;;;5046026;28;20206;-62
2021/12/02 00:33:51;;;;;;;0.60;0.60;;;4.30;99.90;;;;;;5046630;28;20265;-62
2021/12/02 00:36:22;;;;;;;1.70;0.80;;;4.30;99.90;;;;;;5046386;28;20297;-62
2021/12/02 00:38:51;;;;;;;0.90;0.57;;;4.30;99.90;;;;;;5046284;28;20228;-62
2021/12/02 00:41:19;;;;;;;0.53;0.53;;;4.20;99.90;;;;;;5046654;28;20222;-62
2021/12/02 00:43:48;;;;;;;1.53;0.53;;;4.20;99.90;;;;;;5045699;28;20293;-62
2021/12/02 00:46:17;;;;;;;2.20;0.57;;;4.20;99.90;;;;;;5045424;28;20202;-61
2021/12/02 00:48:44;;;;;;;2.60;0.47;;;4.20;99.90;;;;;;5045917;28;20276;-62
2021/12/02 00:51:13;;;;;;;0.60;0.60;;;4.20;99.90;;;;;;5046297;28;20206;-62
2021/12/02 00:53:44;;;;;;;0.67;0.60;;;4.20;99.90;;;;;;5045651;28;20213;-61
2021/12/02 00:56:12;;;;;;;0.53;0.53;;;4.20;99.90;;;;;;5046178;28;20217;-62
2021/12/02 00:58:40;;;;;;;0.57;0.57;;;4.20;99.90;;;;;;5044843;28;20294;-61
2021/12/02 01:01:08;;;;;;;0.87;0.33;;;4.20;99.90;;;;;;5045467;28;20290;-62
2021/12/02 01:03:37;;;;;;;0.60;0.60;;;4.20;99.90;;;;;;5045817;28;20202;-61
2021/12/02 01:06:05;;;;;;;0.60;0.60;;;4.20;99.90;;;;;;5046032;28;20202;-61
2021/12/02 01:08:33;;;;;;;1.37;0.90;;;4.30;99.90;;;;;;5045513;28;20268;-62
2021/12/02 01:11:02;;;;;;;0.60;0.60;;;4.30;99.90;;;;;;5045909;28;20895;-62
2021/12/02 01:13:29;;;;;;;0.50;0.50;;;4.30;99.90;;;;;;5045104;28;20210;-62
2021/12/02 01:15:56;;;;;;;0.67;0.67;;;4.40;99.90;;;;;;5045195;28;20206;-62
2021/12/02 01:18:24;;;;;;;0.63;0.63;;;4.40;99.90;;;;;;5045123;28;20293;-62
2021/12/02 01:20:53;;;;;;;0.80;0.80;;;4.30;99.90;;;;;;5045710;28;20651;-61
2021/12/02 01:23:22;;;;;;;0.47;0.47;;;4.30;99.90;;;;;;5045124;28;20206;-62
2021/12/02 01:25:54;;;;;;;1.03;0.60;;;4.30;99.90;;;;;;5045738;28;20207;-61
2021/12/02 01:28:23;;;;;;;0.50;0.50;;;4.30;99.90;;;;;;5045189;28;20274;-62
2021/12/02 01:30:52;;;;;;;0.57;0.57;;;4.30;99.90;;;;;;5045074;28;20210;-62
2021/12/02 01:33:21;;;;;;;1.37;0.87;;;4.30;99.90;;;;;;5045348;28;20213;-61
2021/12/02 01:35:50;;;;;;;0.70;0.67;;;4.30;99.90;;;;;;5045335;28;20221;-62
2021/12/02 01:38:18;;;;;;;2.17;0.80;;;4.30;99.90;;;;;;5045183;28;20249;-62
2021/12/02 01:40:45;;;;;;;0.57;0.57;;;4.30;99.90;;;;;;5045496;28;20289;-62
2021/12/02 01:43:17;;;;;;;0.40;0.40;;;4.30;99.90;;;;;;5045069;28;20273;-62
2021/12/02 01:45:45;;;;;;;1.70;0.93;;;4.30;99.90;;;;;;5044062;28;20206;-62
2021/12/02 01:48:15;;;;;;;0.60;0.60;;;4.20;99.90;;;;;;5044871;28;20217;-62
2021/12/02 01:50:44;;;;;;;0.70;0.70;;;4.30;99.90;;;;;;5045272;28;20206;-62
2021/12/02 01:53:16;;;;;;;2.53;0.70;;;4.30;99.90;;;;;;5044754;28;20309;-62
2021/12/02 01:55:44;;;;;;;0.80;0.70;;;4.40;99.90;;;;;;5044666;28;20186;-62
2021/12/02 01:58:18;;;;;;;0.93;0.60;;;4.50;99.90;;;;;;5043680;28;20237;-63
2021/12/02 02:00:46;;;;;;;0.70;0.70;;;4.50;99.90;;;;;;5043830;28;20207;-62
2021/12/02 02:03:15;;;;;;;0.87;0.77;;;4.50;99.90;;;;;;5044988;28;20240;-62
2021/12/02 02:05:42;;;;;;;0.50;0.50;;;4.50;99.90;;;;;;5044944;28;20289;-61
2021/12/02 02:08:15;;;;;;;1.10;0.60;;;4.50;99.90;;;;;;5044635;28;20237;-62
2021/12/02 02:10:43;;;;;;;0.83;0.83;;;4.50;99.90;;;;;;5044886;28;20205;-61
2021/12/02 02:13:11;;;;;;;1.00;1.00;;;4.50;99.90;;;;;;5044905;28;20316;-62
2021/12/02 02:15:40;;;;;;;0.50;0.50;;;4.50;99.90;;;;;;5043893;28;20218;-62
2021/12/02 02:18:12;;;;;;;0.50;0.50;;;4.50;99.90;;;;;;5044418;28;20348;-61
2021/12/02 02:20:42;;;;;;;0.70;0.50;;;4.40;99.90;;;;;;5044939;28;20190;-61
2021/12/02 02:23:11;;;;;;;0.70;0.70;;;4.40;99.90;;;;;;5044926;28;20214;-62
2021/12/02 02:25:39;;;;;;;0.47;0.47;;;4.40;99.90;;;;;;5044315;28;20202;-62
2021/12/02 02:28:06;;;;;;;4.27;0.70;;;4.40;99.90;;;;;;5044453;28;20237;-62
2021/12/02 02:30:33;;;;;;;0.70;0.70;;;4.40;99.90;;;;;;5043353;28;20278;-62
2021/12/02 02:33:00;;;;;;;0.90;0.83;;;4.30;99.90;;;;;;5044673;28;20210;-61
2021/12/02 02:35:27;;;;;;;1.30;0.80;;;4.30;99.90;;;;;;5044509;28;20946;-62
2021/12/02 02:37:55;;;;;;;6.40;0.70;;;4.30;99.90;;;;;;5044507;28;20290;-62
2021/12/02 02:40:23;;;;;;;0.70;0.70;;;4.30;99.90;;;;;;5044478;28;20221;-61
2021/12/02 02:42:57;;;;;;;0.67;0.67;;;4.30;99.90;;;;;;5044668;28;20198;-62
2021/12/02 02:45:24;;;;;;;1.10;0.60;;;4.30;99.90;;;;;;5043425;28;20222;-62
2021/12/02 02:47:51;;;;;;;0.40;0.40;;;4.40;99.90;;;;;;5044334;28;20285;-62
2021/12/02 02:50:18;;;;;;;1.13;0.77;;;4.40;99.90;;;;;;5044193;28;20238;-61
2021/12/02 02:52:46;;;;;;;0.60;0.50;;;4.50;99.90;;;;;;5044565;28;20308;-62
2021/12/02 02:55:19;;;;;;;0.83;0.60;;;4.50;99.90;;;;;;5043923;28;20210;-62
2021/12/02 02:57:54;;;;;;;0.70;0.50;;;4.60;99.90;;;;;;5043920;28;20269;-62
2021/12/02 03:00:28;;;;;;;0.70;0.70;;;4.60;99.90;;;;;;5043110;28;20248;-62
2021/12/02 03:03:00;;;;;;;1.43;0.57;;;4.60;99.90;;;;;;5044620;28;20304;-62
2021/12/02 03:05:34;;;;;;;0.77;0.77;;;4.60;99.90;;;;;;5044253;28;20740;-61
2021/12/02 03:08:11;;;;;;;0.70;0.57;;;4.50;99.90;;;;;;5044465;28;20348;-62
2021/12/02 03:10:44;;;;;;;1.30;0.80;;;4.50;99.90;;;;;;5047926;28;20206;-62
2021/12/02 03:13:16;;;;;;;0.70;0.70;;;4.50;99.90;;;;;;5047986;28;20194;-62
2021/12/02 03:18:28;;;;;;;0.50;0.50;;;4.50;99.90;;;;;;5047531;28;20263;-62
2021/12/02 03:20:56;;;;;;;0.67;0.67;;;4.50;99.90;;;;;;5048298;28;20238;-62
2021/12/02 03:23:23;;;;;;;0.80;0.50;;;4.50;99.90;;;;;;5047406;28;20262;-62
2021/12/02 03:25:52;;;;;;;0.40;0.40;;;4.50;99.90;;;;;;5048112;28;20289;-62
2021/12/02 03:28:19;;;;;;;0.47;0.47;;;4.50;99.90;;;;;;5047351;28;20212;-62
2021/12/02 03:30:45;;;;;;;0.70;0.70;;;4.40;99.90;;;;;;5046465;28;20217;-62
2021/12/02 03:33:12;;;;;;;1.93;0.77;;;4.40;99.90;;;;;;5047653;28;20230;-62
2021/12/02 03:35:39;;;;;;;0.60;0.60;;;4.30;99.90;;;;;;5047490;28;20266;-62
2021/12/02 03:38:06;;;;;;;0.50;0.47;;;4.30;99.90;;;;;;5047453;28;20281;-62
2021/12/02 03:40:33;;;;;;;0.50;0.50;;;4.40;99.90;;;;;;5047450;28;20270;-62
2021/12/02 03:43:01;;;;;;;1.73;0.60;;;4.40;99.90;;;;;;5047526;28;20203;-62
2021/12/02 03:45:28;;;;;;;0.57;0.57;;;4.40;99.90;;;;;;5046439;28;20270;-62
2021/12/02 03:47:54;;;;;;;1.27;0.80;;;4.40;99.90;;;;;;5047297;28;20212;-62
2021/12/02 03:50:21;;;;;;;2.00;0.63;;;4.40;99.90;;;;;;5047200;28;20293;-62
2021/12/02 03:52:48;;;;;;;1.13;1.10;;;4.40;99.90;;;;;;5047394;28;20285;-62
2021/12/02 03:55:15;;;;;;;0.63;0.63;;;4.40;99.90;;;;;;5046874;28;20273;-62
2021/12/02 03:57:42;;;;;;;0.80;0.80;;;4.40;99.90;;;;;;5046709;28;20230;-62
2021/12/02 04:00:11;;;;;;;1.43;0.80;;;4.40;99.90;;;;;;5046430;28;20273;-62
2021/12/02 04:02:38;;;;;;;0.60;0.60;;;4.40;99.90;;;;;;5046973;28;20270;-61
2021/12/02 04:05:05;;;;;;;0.57;0.57;;;4.40;99.90;;;;;;5046934;28;20233;-62
2021/12/02 04:07:32;;;;;;;3.27;0.80;;;4.40;99.90;;;;;;5046937;28;20289;-62
2021/12/02 04:10:00;;;;;;;0.73;0.73;;;4.40;99.90;;;;;;5046814;28;20306;-62
2021/12/02 04:12:33;;;;;;;3.17;0.57;;;4.40;99.90;;;;;;5047102;28;20285;-62
2021/12/02 04:15:03;;;;;;;0.97;0.97;;;4.40;99.90;;;;;;5046223;28;20265;-62
2021/12/02 04:17:41;;;;;;;1.20;0.90;;;4.30;99.90;;;;;;5046501;28;20213;-62
2021/12/02 04:20:12;;;;;;;0.70;0.70;;;4.20;99.90;;;;;;5048228;28;20216;-62
2021/12/02 04:22:39;;;;;;;0.43;0.43;;;4.20;99.90;;;;;;5056539;28;20241;-61
2021/12/02 04:25:08;;;;;;;0.63;0.63;;;4.20;99.90;;;;;;5049640;28;20198;-62
2021/12/02 04:27:35;;;;;;;1.60;0.60;;;4.20;99.90;;;;;;5046631;28;20217;-62
2021/12/02 04:30:03;;;;;;;0.50;0.50;;;4.20;99.90;;;;;;5045818;28;20677;-62
2021/12/02 04:32:32;;;;;;;0.90;0.70;;;4.20;99.90;;;;;;5046232;28;20550;-61
2021/12/02 04:34:59;;;;;;;0.40;0.40;;;4.20;99.90;;;;;;5046507;28;20290;-62
2021/12/02 04:37:26;;;;;;;0.60;0.60;;;4.20;99.90;;;;;;5046467;28;20234;-62
2021/12/02 04:39:53;;;;;;;0.60;0.60;;;4.20;99.90;;;;;;5046077;28;20282;-61
2021/12/02 04:42:19;;;;;;;0.50;0.50;;;4.20;99.90;;;;;;5046682;28;20213;-61
2021/12/02 04:44:46;;;;;;;0.80;0.70;;;4.20;99.90;;;;;;5045691;28;20198;-62
2021/12/02 04:47:13;;;;;;;0.50;0.50;;;4.20;99.90;;;;;;5045756;28;20297;-62
2021/12/02 04:49:42;;;;;;;1.20;0.70;;;4.20;99.90;;;;;;5045802;28;20285;-61
2021/12/02 04:52:09;;;;;;;0.40;0.40;;;4.20;99.90;;;;;;5046589;28;20207;-62
2021/12/02 04:54:36;;;;;;;1.03;0.60;;;4.20;99.90;;;;;;5045693;28;20229;-61
2021/12/02 04:57:03;;;;;;;2.07;0.40;;;4.20;99.90;;;;;;5045922;28;20298;-62
2021/12/02 04:59:30;;;;;;;1.53;0.40;;;4.20;99.90;;;;;;5044966;28;20227;-62
2021/12/02 05:01:57;;;;;;;0.70;0.50;;;4.20;99.90;;;;;;5055406;28;20208;-62
2021/12/02 05:04:24;;;;;;;2.53;0.40;;;4.10;99.90;;;;;;5085602;28;20228;-62
2021/12/02 05:06:52;;;;;;;1.30;0.60;;;4.10;99.90;;;;;;5085744;28;20205;-62
2021/12/02 05:09:19;;;;;;;3.63;0.70;;;4.10;99.90;;;;;;5085647;28;20233;-61
2021/12/02 05:11:45;;;;;;;0.60;0.50;;;4.00;99.90;;;;;;5085977;28;20265;-61
2021/12/02 05:14:12;;;;;;;0.60;0.60;;;4.00;99.90;;;;;;5085161;28;20205;-61
2021/12/02 05:16:40;;;;;;;1.23;0.63;;;4.00;99.90;;;;;;5085433;28;20233;-61
2021/12/02 05:19:07;;;;;;;3.00;0.70;;;4.00;99.90;;;;;;5084801;28;20259;-62
2021/12/02 05:21:34;;;;;;;0.43;0.43;;;4.00;99.90;;;;;;5085765;28;20268;-62
2021/12/02 05:24:02;;;;;;;1.50;0.80;;;4.10;99.90;;;;;;5084829;28;20268;-62
2021/12/02 05:26:29;;;;;;;2.13;0.63;;;4.10;99.90;;;;;;5085575;28;20260;-62
2021/12/02 05:28:56;;;;;;;0.70;0.70;;;4.20;99.90;;;;;;5084513;28;20198;-62
2021/12/02 05:31:23;;;;;;;3.73;1.63;;;4.20;99.90;;;;;;5084927;28;20296;-62
2021/12/02 05:33:51;;;;;;;5.60;2.70;;;4.20;99.90;;;;;;5077739;28;20517;-62
2021/12/02 05:36:18;;;;;;;2.07;1.43;;;4.20;99.90;;;;;;5056046;28;20202;-62
2021/12/02 05:38:44;;;;;;;4.97;3.13;;;4.00;99.90;;;;;;5053667;28;20206;-62
2021/12/02 05:41:15;;;;;;;2.13;1.20;;;4.00;99.90;;;;;;5054865;28;20232;-62
2021/12/02 05:43:42;;;;;;;0.40;0.40;;;4.00;99.90;;;;;;5055298;28;20209;-62
2021/12/02 05:46:09;;;;;;;0.77;0.77;;;4.00;99.90;;;;;;5054170;28;20212;-61
2021/12/02 05:48:36;;;;;;;1.63;1.53;;;4.00;99.90;;;;;;5053450;28;20229;-62
2021/12/02 05:51:03;;;;;;;1.80;1.47;;;4.00;99.90;;;;;;5057187;28;20236;-62
2021/12/02 05:53:30;;;;;;;2.07;1.20;;;4.00;99.90;;;;;;5063164;28;20228;-62
2021/12/02 05:55:57;;;;;;;1.03;1.00;;;4.00;99.90;;;;;;5064569;28;20280;-62
2021/12/02 05:58:25;;;;;;;2.30;1.43;;;4.00;99.90;;;;;;5063619;28;20253;-63
2021/12/02 06:00:53;;;;;;;1.70;1.17;;;4.00;99.90;;;;;;5064642;28;20209;-62
2021/12/02 06:03:20;;;;;;;3.13;1.30;;;4.10;99.90;;;;;;5064931;28;20202;-62
2021/12/02 06:05:48;;;;;;;1.50;0.80;;;4.10;99.90;;;;;;5064813;28;20660;-62
2021/12/02 06:08:15;;;;;;;1.10;1.00;;;4.10;99.90;;;;;;5064878;28;20205;-62
2021/12/02 06:10:42;;;;;;;5.23;4.47;;;4.10;99.90;;;;;;5064501;28;20205;-62
2021/12/02 06:13:09;;;;;;;6.60;1.70;;;4.10;99.90;;;;;;5064051;28;20208;-62
2021/12/02 06:15:37;;;;;;;1.40;1.30;;;4.10;99.90;;;;;;5062890;28;20233;-62
2021/12/02 06:18:04;;;;;;;1.20;0.90;;;4.00;99.90;;;;;;5063317;28;20668;-62
2021/12/02 06:20:31;;;;;;;0.37;0.37;;;3.90;99.90;;;;;;5059861;28;20281;-62
2021/12/02 06:22:58;;;;;;;0.40;0.40;;;3.90;99.90;;;;;;5064614;28;20688;-63
2021/12/02 06:28:07;;;;;;;0.30;0.30;;;3.90;99.90;;;;;;5061907;28;20197;-62
2021/12/02 06:30:34;;;;;;;0.23;0.23;;;3.80;99.90;;;;;;5063075;28;21006;-62
2021/12/02 06:33:02;;;;;;;1.90;0.50;;;3.80;99.90;;;;;;5064381;28;20208;-62
2021/12/02 06:35:29;;;;;;;0.30;0.30;;;3.70;99.90;;;;;;5064235;28;20201;-62
2021/12/02 06:37:56;;;;;;;0.47;0.43;;;3.60;99.90;;;;;;5064213;28;20273;-62
2021/12/02 06:40:24;;;;;;;3.23;1.20;;;3.60;99.90;;;;;;5064085;28;20289;-62
2021/12/02 06:42:51;;;;;;;0.60;0.60;;;3.60;99.90;;;;;;5064810;28;20269;-62
2021/12/02 06:45:18;;;;;;;0.87;0.57;;;3.70;99.90;;;;;;5067920;28;20645;-62
2021/12/02 06:47:45;;;;;;;0.30;0.30;;;3.80;99.90;;;;;;5068382;28;20677;-62
2021/12/02 06:50:18;;;;;;;0.33;0.33;;;3.90;99.90;;;;;;5068501;28;20198;-62
2021/12/02 06:52:45;;;;;;;1.77;0.30;;;3.80;99.90;;;;;;5069003;28;20228;-62
2021/12/02 06:55:13;;;;;;;0.40;0.40;;;3.80;99.90;;;;;;5067898;28;20265;-62
2021/12/02 06:57:40;;;;;;;0.30;0.30;;;3.70;99.90;;;;;;5068358;28;20253;-62
2021/12/02 07:00:11;;;;;;;0.20;0.20;;;3.60;99.90;;;;;;5067420;28;20226;-62
2021/12/02 07:02:39;;;;;;;0.30;0.30;;;3.50;99.90;;;;;;5068130;28;20214;-62
2021/12/02 07:05:08;;;;;;;0.30;0.30;;;3.50;99.90;;;;;;5067644;28;20221;-62
2021/12/02 07:07:37;;;;;;;0.27;0.27;;;3.40;99.90;;;;;;5067689;28;20671;-62
2021/12/02 07:10:05;;;;;;;0.40;0.40;;;3.30;99.90;;;;;;5067574;28;20193;-62
2021/12/02 07:12:33;;;;;;;0.20;0.20;;;3.20;99.90;;;;;;5067229;28;20225;-62
2021/12/02 07:15:05;;;;;;;0.23;0.23;;;3.10;99.90;;;;;;5066041;28;20202;-62
2021/12/02 07:17:33;;;;;;;0.30;0.30;;;3.10;99.90;;;;;;5067362;28;20229;-63
2021/12/02 07:20:00;;;;;;;1.50;0.87;;;3.10;99.90;;;;;;5067640;28;20685;-63
2021/12/02 07:22:27;;;;;;;0.50;0.50;;;3.20;99.90;;;;;;5067892;28;20216;-63
2021/12/02 07:24:56;;;;;;;0.70;0.70;;;3.30;99.90;;;;;;5067392;28;20263;-62
2021/12/02 07:27:23;;;;;;;0.43;0.43;;;3.30;99.90;;;;;;5067802;28;20746;-62
2021/12/02 07:29:50;;;;;;;2.10;1.50;;;3.20;99.90;;;;;;5066884;28;20233;-62
2021/12/02 07:32:17;;;;;;;0.50;0.50;;;3.20;99.90;;;;;;5067631;28;20224;-62
2021/12/02 07:34:49;;;;;;;1.23;0.67;;;3.20;99.90;;;;;;5067828;28;20229;-62
2021/12/02 07:37:17;;;;;;;0.90;0.90;;;2.90;99.90;;;;;;5067839;28;20216;-62
2021/12/02 07:39:44;;;;;;;0.43;0.23;;;3.40;99.90;;;;;;5067259;28;20224;-62
2021/12/02 07:42:12;;;;;;;1.50;1.40;;;3.50;99.90;;;;;;5067858;28;20244;-63
2021/12/02 07:44:39;;;;;;;2.13;1.70;;;3.50;99.90;;;;;;5066750;28;20205;-62
2021/12/02 07:47:08;;;;;;;3.93;1.70;;;3.60;99.90;;;;;;5066838;28;20206;-62
2021/12/02 07:49:35;;;;;;;1.10;1.00;;;3.60;99.90;;;;;;5067234;28;20539;-63
2021/12/02 07:52:03;;;;;;;0.77;0.77;;;3.50;99.90;;;;;;5067775;28;20268;-62
2021/12/02 07:54:32;;;;;;;0.60;0.60;;;3.50;99.90;;;;;;5065783;28;20260;-62
2021/12/02 07:57:00;;;;;;;0.50;0.50;;;3.50;99.90;;;;;;5066802;28;20209;-63
2021/12/02 07:59:29;;;;;;;0.50;0.50;;;3.50;99.90;;;;;;5066277;28;20742;-62
2021/12/02 08:02:00;;;;;;;0.30;0.30;;;3.60;99.90;;;;;;5066751;28;20628;-62
2021/12/02 08:04:28;;;;;;;0.40;0.40;;;3.60;99.90;;;;;;5067086;28;20197;-63
2021/12/02 08:06:55;;;;;;;0.53;0.53;;;3.70;99.90;;;;;;5067078;28;20204;-63
2021/12/02 08:09:22;;;;;;;0.87;0.73;;;3.60;99.90;;;;;;5066694;28;20312;-63
2021/12/02 08:11:49;;;;;;;0.97;0.80;;;3.70;99.90;;;;;;5067351;28;20225;-62
2021/12/02 08:14:17;;;;;;;0.80;0.80;;;3.60;99.90;;;;;;5066264;28;20224;-62
2021/12/02 08:16:46;;;;;;;0.73;0.73;;;3.60;99.90;;;;;;5066304;28;20210;-62
2021/12/02 08:19:13;;;;;;;0.50;0.50;;;3.50;99.90;;;;;;5065945;28;20293;-62
2021/12/02 08:21:40;;;;;;;0.53;0.53;;;3.40;99.90;;;;;;5066862;28;20281;-61
2021/12/02 08:24:07;;;;;;;0.50;0.50;;;3.30;99.90;;;;;;5066233;28;20220;-59
2021/12/02 08:26:35;;;;;;;0.63;0.63;;;3.30;99.90;;;;;;5066997;28;20289;-57
2021/12/02 08:29:03;;;;;;;2.10;0.63;;;3.30;99.90;;;;;;5065559;28;20206;-57
2021/12/02 08:31:30;;;;;;;0.70;0.50;;;3.30;99.90;;;;;;5066245;28;20213;-57
2021/12/02 08:33:58;;;;;;;0.57;0.57;;;3.30;99.90;;;;;;5066652;28;20202;-57
2021/12/02 08:36:27;;;;;;;0.50;0.50;;;3.30;99.90;;;;;;5066372;28;20198;-57
2021/12/02 08:38:55;;;;;;;0.80;0.80;;;3.20;99.90;;;;;;5065998;28;20297;-56
2021/12/02 08:41:22;;;;;;;0.60;0.50;;;3.20;99.90;;;;;;5066649;28;20316;-57
2021/12/02 08:43:49;;;;;;;0.97;0.90;;;3.20;99.90;;;;;;5065546;28;20197;-61
2021/12/02 08:46:20;;;;;;;0.83;0.73;;;3.30;99.90;;;;;;5065267;28;20198;-61
2021/12/02 08:48:50;;;;;;;2.43;1.50;;;3.20;99.90;;;;;;5065929;28;20301;-61
2021/12/02 08:51:18;;;;;;;1.73;1.10;;;3.30;99.90;;;;;;5066489;28;20233;-61
2021/12/02 08:53:45;;;;;;;0.93;0.80;;;3.50;99.90;;;;;;5065592;28;20225;-61
2021/12/02 08:56:12;;;;;;;0.60;0.60;;;3.50;99.90;;;;;;5066207;28;20269;-61
2021/12/02 08:58:39;;;;;;;1.20;1.10;;;3.50;99.90;;;;;;5065001;28;20297;-61
2021/12/02 09:01:06;;;;;;;1.43;1.27;;;3.50;99.90;;;;;;5065492;28;20241;-61
2021/12/02 09:03:33;;;;;;;1.57;1.47;;;3.50;99.90;;;;;;5066001;28;20277;-61
2021/12/02 09:06:00;;;;;;;0.80;0.80;;;3.60;99.90;;;;;;5065462;28;20763;-61
2021/12/02 09:08:28;;;;;;;0.60;0.60;;;3.50;99.90;;;;;;5065813;28;20201;-61
2021/12/02 09:10:56;;;;;;;0.90;0.90;;;3.50;99.90;;;;;;5065737;28;20696;-60
2021/12/02 09:13:24;;;;;;;0.77;0.70;;;3.50;99.90;;;;;;5065602;28;20240;-62
2021/12/02 09:15:50;;;;;;;4.20;0.80;;;3.50;99.90;;;;;;5065522;28;20198;-61
2021/12/02 09:18:17;;;;;;;2.17;1.77;;;3.40;99.90;;;;;;5065330;28;20202;-61
2021/12/02 09:20:44;;;;;;;1.70;1.43;;;3.30;99.90;;;;;;5065425;28;20222;-61
2021/12/02 09:23:13;;;;;;;1.40;1.30;;;3.30;99.90;;;;;;5065700;28;20274;-61
2021/12/02 09:25:41;;;;;;;2.87;1.77;;;3.30;99.90;;;;;;5065116;28;20201;-62
2021/12/02 09:28:09;;;;;;;0.70;0.70;;;3.30;99.90;;;;;;5065412;28;20301;-59
2021/12/02 09:30:36;;;;;;;0.70;0.70;;;3.30;99.90;;;;;;5064473;28;20643;-59
2021/12/02 09:33:04;;;;;;;0.50;0.50;;;3.20;99.90;;;;;;5065112;28;20237;-60
2021/12/02 09:35:31;;;;;;;2.30;0.63;;;3.10;99.90;;;;;;5065248;28;20235;-59
2021/12/02 09:37:59;;;;;;;1.07;0.60;;;3.10;99.90;;;;;;5065224;28;20703;-60
2021/12/02 09:40:26;;;;;;;1.03;0.70;;;3.10;99.90;;;;;;5065004;28;20222;-59
2021/12/02 09:42:54;;;;;;;0.60;0.60;;;3.00;99.90;;;;;;5065413;28;20684;-60
2021/12/02 09:45:21;;;;;;;0.60;0.60;;;3.00;99.90;;;;;;5064284;28;20198;-60
2021/12/02 09:47:50;;;;;;;0.47;0.47;;;3.00;99.90;;;;;;5064739;28;20239;-59
2021/12/02 09:50:26;;;;;;;1.73;1.47;;;3.00;99.90;;;;;;5064832;28;20201;-59
2021/12/02 09:52:53;;;;;;;0.57;0.57;;;3.00;99.90;;;;;;5065569;28;20189;-59
2021/12/02 09:55:24;;;;;;;0.90;0.80;;;3.00;99.90;;;;;;5064521;28;20506;-59
2021/12/02 09:57:55;;;;;;;1.00;0.83;;;3.10;99.90;;;;;;5064912;28;20238;-59
2021/12/02 10:00:29;;;;;;;2.40;1.20;;;3.10;99.90;;;;;;5064102;28;20232;-60
2021/12/02 10:02:58;;;;;;;3.00;1.00;;;3.20;99.90;;;;;;5064544;28;20214;-59
2021/12/02 10:05:34;;;;;;;0.77;0.77;;;3.30;99.90;;;;;;5064818;28;20202;-60
2021/12/02 10:08:06;;;;;;;2.23;2.07;;;3.30;99.90;;;;;;5064715;28;20210;-59
2021/12/02 10:10:37;;;;;;;1.50;1.40;;;3.40;99.90;;;;;;5064852;28;20204;-60
2021/12/02 10:13:14;;;;;;;1.17;1.07;;;3.50;99.90;;;;;;5065077;28;20190;-59
2021/12/02 10:15:50;;;;;;;1.30;1.20;;;3.60;99.90;;;;;;5064072;28;20209;-60
2021/12/02 10:18:19;;;;;;;1.37;1.03;;;3.60;99.90;;;;;;5064110;28;20522;-60
2021/12/02 10:20:50;;;;;;;1.63;1.50;;;3.60;99.90;;;;;;5064653;28;20284;-60
2021/12/02 10:23:22;;;;;;;2.53;1.23;;;3.60;99.90;;;;;;5064734;28;20245;-59
2021/12/02 10:25:54;;;;;;;2.00;1.37;;;3.60;99.90;;;;;;5064823;28;20209;-60
2021/12/02 10:28:24;;;;;;;1.60;1.30;;;3.70;99.90;;;;;;5064443;28;20217;-61
2021/12/02 10:30:54;;;;;;;1.30;1.03;;;3.80;99.90;;;;;;5063905;28;20205;-60
2021/12/02 10:33:31;;;;;;;2.10;1.10;;;3.80;99.90;;;;;;5064751;28;20205;-60
2021/12/02 10:35:59;;;;;;;1.40;1.30;;;3.80;99.90;;;;;;5064415;28;20585;-59
2021/12/02 10:38:40;;;;;;;1.07;0.97;;;3.80;99.90;;;;;;5064608;28;20209;-59
2021/12/02 10:41:09;;;;;;;1.73;1.63;;;3.80;99.90;;;;;;5064411;28;20643;-59
2021/12/02 10:43:57;;;;;;;2.27;1.47;;;3.90;99.90;;;;;;5063776;28;20197;-60
2021/12/02 10:46:24;;;;;;;1.20;1.03;;;3.90;99.90;;;;;;5063770;28;21403;-60
2021/12/02 10:48:52;;;;;;;1.40;1.10;;;3.90;99.90;;;;;;5063993;28;20237;-62
2021/12/02 10:51:40;;;;;;;1.87;1.20;;;3.90;99.90;;;;;;5064287;28;20216;-60
2021/12/02 10:54:13;;;;;;;2.37;1.60;;;3.80;99.90;;;;;;5063937;28;20196;-59
2021/12/02 10:56:42;;;;;;;1.90;1.20;;;3.80;99.90;;;;;;5064508;28;20218;-60
2021/12/02 10:59:33;;;;;;;1.47;1.37;;;3.70;99.90;;;;;;5062531;28;20276;-59
2021/12/02 11:02:03;;;;;;;1.60;1.20;;;3.70;99.90;;;;;;5050677;28;20249;-60
2021/12/02 11:04:37;;;;;;;3.27;1.70;;;3.70;99.90;;;;;;5063914;28;20210;-60
2021/12/02 11:07:09;;;;;;;2.57;1.43;;;3.70;99.90;;;;;;5063966;28;20202;-60
2021/12/02 11:09:38;;;;;;;2.97;1.50;;;3.70;99.90;;;;;;5064258;28;20209;-60
2021/12/02 11:12:20;;;;;;;1.93;1.73;;;3.70;99.90;;;;;;5064108;28;20201;-60
2021/12/02 11:15:10;;;;;;;1.60;1.50;;;3.70;99.90;;;;;;5063343;28;20232;-60
2021/12/02 11:17:46;;;;;;;4.63;3.87;;;3.70;99.90;;;;;;5063134;28;20273;-60
2021/12/02 11:20:20;;;;;;;3.47;2.93;;;3.70;99.90;;;;;;5063856;28;20225;-60
2021/12/02 11:22:48;;;;;;;2.10;1.80;;;3.70;99.90;;;;;;5064272;28;20273;-60
2021/12/02 11:25:16;;;;;;;1.93;1.37;;;3.60;99.90;;;;;;5063131;28;20656;-60
2021/12/02 11:27:45;;;;;;;1.83;1.20;;;3.60;99.90;;;;;;5064075;28;20232;-60
2021/12/02 11:30:17;;;;;;;1.13;1.03;;;3.60;99.90;;;;;;5065213;28;20233;-61
2021/12/02 11:32:50;;;;;;;1.20;1.10;;;3.40;99.90;;;;;;5067369;28;20206;-60
2021/12/02 11:35:23;;;;;;;2.63;1.07;;;3.10;99.90;;;;;;5067325;28;20190;-61
2021/12/02 11:37:54;;;;;;;1.80;1.10;;;3.00;99.90;;;;;;5066782;28;20205;-60
2021/12/02 11:40:23;;;;;;;1.23;1.13;;;2.90;99.90;;;;;;5066784;28;20244;-60
2021/12/02 11:42:51;;;;;;;1.03;0.87;;;2.90;99.90;;;;;;5067388;28;20269;-60
2021/12/02 11:45:26;;;;;;;0.90;0.87;;;2.80;99.90;;;;;;5066462;28;20212;-60
2021/12/02 11:47:54;;;;;;;1.13;0.77;;;2.70;99.90;;;;;;5061100;28;20206;-60
2021/12/02 11:50:23;;;;;;;0.80;0.80;;;2.70;99.90;;;;;;5060125;28;20200;-61
2021/12/02 11:52:53;;;;;;;1.13;1.03;;;2.70;99.90;;;;;;5056910;28;20195;-60
2021/12/02 11:55:23;;;;;;;1.43;1.07;;;2.70;99.90;;;;;;5056034;28;20229;-60
2021/12/02 11:57:51;;;;;;;2.30;1.20;;;2.60;99.90;;;;;;5055716;28;20230;-60
2021/12/02 12:00:22;;;;;;;1.23;1.00;;;2.60;99.90;;;;;;5054835;28;20355;-60
2021/12/02 12:02:54;;;;;;;3.77;3.07;;;2.60;99.90;;;;;;5059645;28;20202;-56
2021/12/02 12:05:25;;;;;;;4.10;1.10;;;2.60;99.90;;;;;;5053215;28;20186;-56
2021/12/02 12:07:53;;;;;;;4.20;3.80;;;2.60;99.90;;;;;;5052969;28;20198;-57
2021/12/02 12:10:26;;;;;;;1.13;1.00;;;2.60;99.90;;;;;;5056127;28;20234;-57
2021/12/02 12:13:10;;;;;;;1.80;1.53;;;2.60;99.90;;;;;;5055463;28;20194;-59
2021/12/02 12:15:41;;;;;;;1.50;1.40;;;2.60;99.90;;;;;;5054875;28;20281;-57
2021/12/02 12:18:10;;;;;;;0.80;0.80;;;2.60;99.90;;;;;;5054667;28;20217;-60
2021/12/02 12:20:57;;;;;;;1.77;1.07;;;2.70;99.90;;;;;;5050004;28;20572;-58
2021/12/02 12:23:43;;;;;;;2.87;0.90;;;2.70;99.90;;;;;;5045948;28;20255;-58
2021/12/02 12:26:13;;;;;;;1.20;1.10;;;2.70;99.90;;;;;;5046151;28;20202;-61
2021/12/02 12:29:17;;;;;;;1.00;0.90;;;2.70;99.90;;;;;;5045564;28;20234;-61
2021/12/02 12:35:14;;;;;;;2.57;1.37;;;2.80;99.90;;;;;;5036134;28;20198;-58
2021/12/02 12:37:51;;;;;;;1.37;1.23;;;2.70;99.90;;;;;;5046604;28;20209;-58
2021/12/02 12:40:23;;;;;;;1.63;1.30;;;2.80;99.90;;;;;;5054291;28;20208;-60
2021/12/02 12:42:52;;;;;;;2.40;1.10;;;2.80;99.90;;;;;;5046040;28;20197;-61
2021/12/02 12:45:31;;;;;;;2.43;1.77;;;2.80;99.90;;;;;;5045621;28;20211;-62
2021/12/02 12:47:59;;;;;;;1.73;1.63;;;2.80;99.90;;;;;;5056240;28;20300;-62
2021/12/02 12:50:34;;;;;;;1.17;1.07;;;2.90;99.90;;;;;;5061622;28;20194;-61
2021/12/02 12:53:37;;;;;;;1.53;1.23;;;3.00;99.90;;;;;;5046454;28;20182;-60
2021/12/02 12:56:07;;;;;;;1.83;1.27;;;2.90;99.90;;;;;;5046116;28;20205;-61
2021/12/02 12:58:35;;;;;;;2.03;1.40;;;2.90;99.90;;;;;;5044826;28;20321;-61
2021/12/02 13:01:05;;;;;;;2.77;1.30;;;2.90;99.90;;;;;;5045426;28;20314;-58
2021/12/02 13:03:40;;;;;;;1.57;1.30;;;2.80;99.90;;;;;;5027860;28;20214;-57
2021/12/02 13:06:11;;;;;;;1.30;1.20;;;2.80;99.90;;;;;;5046039;28;20274;-63
2021/12/02 13:08:47;;;;;;;1.70;1.50;;;2.80;99.90;;;;;;5045597;28;20221;-63
2021/12/02 13:11:16;;;;;;;1.33;1.23;;;2.70;99.90;;;;;;5045584;28;20202;-64
2021/12/02 13:13:45;;;;;;;4.33;1.23;;;2.70;99.90;;;;;;5045150;28;20321;-64
2021/12/02 13:16:34;;;;;;;5.60;3.10;;;2.70;99.90;;;;;;5045310;28;20327;-63
2021/12/02 13:19:10;;;;;;;3.87;1.23;;;2.70;99.90;;;;;;5065076;28;20197;-63